Time;durP1;ratioP1;P1;durP2;ratioP2;P2;SDS_P1;SDS_P2;PMS_P1;PMS_P2;Temp;Humidity;BMP_temperature;BMP_pressure;BME280_temperature;BME280_humidity;BME280_pressure;Samples;Min_cycle;Max_cycle;Signal;HPM_P1;HPM_P2
2022/12/08 00:01:41;;;;;;;5.5;3.4;;;;;;;3.2;75.1;98270;;;;
2022/12/08 00:12:41;;;;;;;5.5;3.4;;;;;;;3.2;75.2;98280;;;;
2022/12/08 00:22:41;;;;;;;5.8;2.9;;;;;;;3.2;75.2;98280;;;;
2022/12/08 00:32:41;;;;;;;5.8;2.9;;;;;;;3.2;75;98290;;;;
2022/12/08 00:43:41;;;;;;;5.8;2.9;;;;;;;3.2;74.9;98290;;;;
2022/12/08 00:53:41;;;;;;;5.7;3.4;;;;;;;3.1;75.5;98290;;;;
2022/12/08 01:03:41;;;;;;;5.7;3.4;;;;;;;3;75.5;98300;;;;
2022/12/08 01:14:41;;;;;;;4.4;2.4;;;;;;;3;75.8;98310;;;;
2022/12/08 01:25:41;;;;;;;4.4;2.4;;;;;;;3;75.8;98310;;;;
2022/12/08 01:35:41;;;;;;;4.4;2.4;;;;;;;2.9;76.1;98300;;;;
2022/12/08 01:46:41;;;;;;;6.4;3.1;;;;;;;2.7;76.4;98300;;;;
2022/12/08 01:57:41;;;;;;;6.4;3.1;;;;;;;2.4;77.1;98310;;;;
2022/12/08 02:08:41;;;;;;;6.4;3.1;;;;;;;2.2;77.9;98300;;;;
2022/12/08 02:18:41;;;;;;;6.3;2.8;;;;;;;2.2;78.5;98310;;;;
2022/12/08 02:29:41;;;;;;;6.3;2.8;;;;;;;2.3;78.5;98310;;;;
2022/12/08 02:39:41;;;;;;;6.3;2.8;;;;;;;2.4;78.2;98310;;;;
2022/12/08 02:49:41;;;;;;;4.1;2.3;;;;;;;2.2;78.5;98320;;;;
2022/12/08 03:00:41;;;;;;;4.1;2.3;;;;;;;2.4;78.9;98310;;;;
2022/12/08 03:11:41;;;;;;;4.1;2.3;;;;;;;2.6;78.6;98300;;;;
2022/12/08 03:21:41;;;;;;;6.1;2.9;;;;;;;2.6;78.3;98310;;;;
2022/12/08 03:31:41;;;;;;;6.1;2.9;;;;;;;2.6;78.2;98310;;;;
2022/12/08 03:42:41;;;;;;;6.1;2.9;;;;;;;2.6;78.6;98300;;;;
2022/12/08 03:53:41;;;;;;;5.8;2.9;;;;;;;2.7;78.1;98300;;;;
2022/12/08 04:04:41;;;;;;;5.8;2.9;;;;;;;2.8;77.6;98290;;;;
2022/12/08 04:15:41;;;;;;;6.3;2.8;;;;;;;2.8;77.1;98290;;;;
2022/12/08 04:25:41;;;;;;;6.3;2.8;;;;;;;2.8;76.7;98290;;;;
2022/12/08 04:36:42;;;;;;;6.3;2.8;;;;;;;2.8;76.7;98290;;;;
2022/12/08 04:46:41;;;;;;;5.9;2.7;;;;;;;2.7;77;98290;;;;
2022/12/08 04:57:41;;;;;;;5.9;2.7;;;;;;;2.6;77.1;98290;;;;
2022/12/08 05:07:41;;;;;;;5.9;2.7;;;;;;;2.6;77.4;98290;;;;
2022/12/08 05:18:41;;;;;;;4.6;2.8;;;;;;;2.6;77.4;98280;;;;
2022/12/08 05:28:41;;;;;;;4.6;2.8;;;;;;;2.5;77.8;98280;;;;
2022/12/08 05:38:41;;;;;;;4.6;2.8;;;;;;;2.4;78;98280;;;;
2022/12/08 05:49:41;;;;;;;7.6;3.5;;;;;;;2.1;79.1;98280;;;;
2022/12/08 06:00:41;;;;;;;7.6;3.5;;;;;;;2;78.9;98300;;;;
2022/12/08 06:11:41;;;;;;;;;;;;;;;;;;;;;
2022/12/08 06:22:41;;;;;;;9.3;2.9;;;;;;;1.8;79.8;98310;;;;
2022/12/08 06:33:41;;;;;;;9.3;2.9;;;;;;;2.1;78.9;98310;;;;
2022/12/08 06:44:41;;;;;;;7.1;3.5;;;;;;;2.3;78.2;98340;;;;
2022/12/08 06:55:41;;;;;;;7.1;3.5;;;;;;;2.5;78.1;98340;;;;
2022/12/08 07:05:41;;;;;;;7.1;3.5;;;;;;;2.6;77;98350;;;;
2022/12/08 07:16:41;;;;;;;5.5;3;;;;;;;2.7;76.8;98350;;;;
2022/12/08 07:26:41;;;;;;;5.5;3;;;;;;;2.7;76.5;98350;;;;
2022/12/08 07:36:41;;;;;;;5.5;3;;;;;;;2.8;76.4;98350;;;;
2022/12/08 07:47:41;;;;;;;10.3;4.7;;;;;;;3;76.5;98360;;;;
2022/12/08 07:57:41;;;;;;;10.3;4.7;;;;;;;3.1;76.6;98360;;;;
2022/12/08 08:08:41;;;;;;;10.3;4.7;;;;;;;3.3;76;98360;;;;
2022/12/08 08:18:42;;;;;;;8.2;5.1;;;;;;;3.7;75.2;98360;;;;
2022/12/08 08:29:41;;;;;;;8.2;5.1;;;;;;;4;74.5;98350;;;;
2022/12/08 08:39:41;;;;;;;8.2;5.1;;;;;;;4.3;72.6;98340;;;;
2022/12/08 08:50:41;;;;;;;11.5;7.2;;;;;;;4.6;71.7;98350;;;;
2022/12/08 09:01:41;;;;;;;11.5;7.2;;;;;;;4.8;72;98340;;;;
2022/12/08 09:11:41;;;;;;;11.5;7.2;;;;;;;5;71.7;98340;;;;
2022/12/08 09:21:41;;;;;;;14.3;10.6;;;;;;;5.1;71.6;98330;;;;
2022/12/08 09:31:41;;;;;;;14.3;10.6;;;;;;;5.4;70.7;98320;;;;
2022/12/08 09:42:41;;;;;;;14.3;10.6;;;;;;;5.2;68.9;98300;;;;
2022/12/08 09:52:41;;;;;;;14.5;9.7;;;;;;;5.2;70.2;98300;;;;
2022/12/08 10:03:41;;;;;;;14.5;9.7;;;;;;;5.3;69.9;98290;;;;
2022/12/08 10:14:41;;;;;;;14.1;10.1;;;;;;;5;69.7;98290;;;;
2022/12/08 10:25:41;;;;;;;14.1;10.1;;;;;;;4.9;70.8;98290;;;;
2022/12/08 10:35:41;;;;;;;14.1;10.1;;;;;;;4.9;71.2;98280;;;;
2022/12/08 10:46:41;;;;;;;8.8;6.1;;;;;;;5.1;71.9;98280;;;;
2022/12/08 10:56:41;;;;;;;8.8;6.1;;;;;;;5;72.9;98270;;;;
2022/12/08 11:06:41;;;;;;;8.8;6.1;;;;;;;5.1;73;98260;;;;
2022/12/08 11:17:44;;;;;;;13.3;8.3;;;;;;;5.2;72.5;98250;;;;
2022/12/08 11:27:42;;;;;;;13.3;8.3;;;;;;;5.2;73.3;98250;;;;
2022/12/08 11:38:41;;;;;;;13.3;8.3;;;;;;;5.3;72.7;98250;;;;
2022/12/08 11:49:41;;;;;;;17.1;13.2;;;;;;;5.4;72.8;98250;;;;
2022/12/08 12:00:41;;;;;;;17.1;13.2;;;;;;;5.5;72.7;98240;;;;
2022/12/08 12:10:41;;;;;;;17.1;13.2;;;;;;;5.4;72.5;98240;;;;
2022/12/08 12:20:41;;;;;;;12.2;8.5;;;;;;;5.4;72.5;98240;;;;
2022/12/08 12:31:41;;;;;;;12.2;8.5;;;;;;;5.4;73.6;98240;;;;
2022/12/08 12:42:41;;;;;;;16.1;11.8;;;;;;;5.4;73.7;98230;;;;
2022/12/08 12:52:41;;;;;;;16.1;11.8;;;;;;;5.4;73.9;98220;;;;
2022/12/08 13:02:41;;;;;;;16.1;11.8;;;;;;;5.4;73.9;98210;;;;
2022/12/08 13:13:41;;;;;;;15.5;9;;;;;;;5.4;73.3;98210;;;;
2022/12/08 13:23:42;;;;;;;15.5;9;;;;;;;5.3;73.5;98210;;;;
2022/12/08 13:33:41;;;;;;;15.5;9;;;;;;;5.2;74.1;98210;;;;
2022/12/08 13:44:41;;;;;;;16.9;11.7;;;;;;;5.2;74.5;98200;;;;
2022/12/08 13:55:43;;;;;;;16.9;11.7;;;;;;;5.1;74.9;98200;;;;
2022/12/08 14:06:41;;;;;;;16.9;11.7;;;;;;;5.1;75.6;98200;;;;
2022/12/08 14:17:41;;;;;;;18.7;13.1;;;;;;;4.9;76.6;98210;;;;
2022/12/08 14:28:42;;;;;;;18.7;13.1;;;;;;;4.9;77.2;98210;;;;
2022/12/08 14:38:41;;;;;;;18.7;13.1;;;;;;;4.8;77.6;98200;;;;
2022/12/08 14:49:43;;;;;;;20.6;15;;;;;;;4.6;78.4;98200;;;;
2022/12/08 14:59:41;;;;;;;20.6;15;;;;;;;4.5;79.2;98210;;;;
2022/12/08 15:09:41;;;;;;;20.6;15;;;;;;;4.4;79.4;98210;;;;
2022/12/08 15:20:41;;;;;;;19.8;14.7;;;;;;;4.3;79.5;98200;;;;
2022/12/08 15:30:41;;;;;;;19.8;14.7;;;;;;;4.3;79.6;98190;;;;
2022/12/08 15:40:41;;;;;;;19.8;14.7;;;;;;;4.3;79.5;98190;;;;
2022/12/08 15:51:41;;;;;;;13.9;9.2;;;;;;;4.1;79.7;98190;;;;
2022/12/08 16:02:41;;;;;;;13.9;9.2;;;;;;;3.9;80.2;98180;;;;
2022/12/08 16:13:56;;;;;;;16.1;11.8;;;;;;;3.8;80.5;98170;;;;
2022/12/08 16:23:41;;;;;;;16.1;11.8;;;;;;;3.7;80.5;98170;;;;
2022/12/08 16:34:41;;;;;;;16.1;11.8;;;;;;;3.4;80.9;98170;;;;
2022/12/08 16:44:41;;;;;;;22.1;14.8;;;;;;;3.3;81.6;98170;;;;
2022/12/08 16:55:41;;;;;;;22.1;14.8;;;;;;;3.2;81.5;98170;;;;
2022/12/08 17:06:41;;;;;;;22.1;14.8;;;;;;;3.1;81.8;98150;;;;
2022/12/08 17:16:41;;;;;;;21.3;13.8;;;;;;;3;82.1;98150;;;;
2022/12/08 17:26:41;;;;;;;21.3;13.8;;;;;;;2.9;82.4;98170;;;;
2022/12/08 17:37:41;;;;;;;21.3;13.8;;;;;;;2.8;82.7;98160;;;;
2022/12/08 17:47:41;;;;;;;22.7;13.6;;;;;;;2.9;83;98160;;;;
2022/12/08 17:58:41;;;;;;;22.7;13.6;;;;;;;2.9;82.8;98160;;;;
2022/12/08 18:08:41;;;;;;;22.7;13.6;;;;;;;3;82.4;98150;;;;
2022/12/08 18:18:41;;;;;;;29;18.1;;;;;;;3.1;81.5;98140;;;;
2022/12/08 18:29:41;;;;;;;29;18.1;;;;;;;3.2;81.4;98130;;;;
2022/12/08 18:39:41;;;;;;;29;18.1;;;;;;;3.2;79.5;98120;;;;
2022/12/08 18:49:41;;;;;;;25.2;14.4;;;;;;;3.3;79.1;98120;;;;
2022/12/08 19:00:41;;;;;;;25.2;14.4;;;;;;;3.3;78.5;98120;;;;
2022/12/08 19:11:41;;;;;;;21.6;11.2;;;;;;;3.4;77.8;98120;;;;
2022/12/08 19:21:41;;;;;;;21.6;11.2;;;;;;;3.5;77.3;98110;;;;
2022/12/08 19:31:41;;;;;;;21.6;11.2;;;;;;;3.6;76.8;98110;;;;
2022/12/08 19:51:43;;;;;;;20.8;10.9;;;;;;;3.7;76.6;98110;;;;
2022/12/08 20:02:41;;;;;;;20.8;10.9;;;;;;;3.7;76.6;98100;;;;
2022/12/08 20:12:41;;;;;;;21;14;;;;;;;3.6;76.4;98100;;;;
2022/12/08 20:22:41;;;;;;;21;14;;;;;;;3.5;76.2;98100;;;;
2022/12/08 20:33:41;;;;;;;21;14;;;;;;;3.5;76.3;98100;;;;
2022/12/08 20:44:43;;;;;;;26.5;16.9;;;;;;;3.3;76.3;98090;;;;
2022/12/08 20:54:41;;;;;;;26.5;16.9;;;;;;;3.3;76.5;98100;;;;
2022/12/08 21:04:41;;;;;;;26.5;16.9;;;;;;;3.3;78.3;98100;;;;
2022/12/08 21:14:42;;;;;;;39;24.8;;;;;;;3.3;79.2;98090;;;;
2022/12/08 21:25:43;;;;;;;39;24.8;;;;;;;3.3;79.5;98100;;;;
2022/12/08 21:35:41;;;;;;;39;24.8;;;;;;;3.3;80;98100;;;;
2022/12/08 21:46:41;;;;;;;37.7;24.8;;;;;;;3.3;80.2;98100;;;;
2022/12/08 21:57:41;;;;;;;37.7;24.8;;;;;;;3.3;80.3;98100;;;;
2022/12/08 22:07:41;;;;;;;37.7;24.8;;;;;;;3.3;80;98090;;;;
2022/12/08 22:17:41;;;;;;;41.1;24.9;;;;;;;3.3;79.5;98080;;;;
2022/12/08 22:27:41;;;;;;;41.1;24.9;;;;;;;3.4;79.2;98080;;;;
2022/12/08 22:37:41;;;;;;;41.1;24.9;;;;;;;3.5;78.5;98080;;;;
2022/12/08 22:47:41;;;;;;;20;11.7;;;;;;;3.6;77.8;98070;;;;
2022/12/08 22:57:41;;;;;;;20;11.7;;;;;;;3.6;77.4;98070;;;;
2022/12/08 23:08:41;;;;;;;20;11.7;;;;;;;3.7;77.4;98060;;;;
2022/12/08 23:18:41;;;;;;;20;13.1;;;;;;;3.6;77.4;98070;;;;
2022/12/08 23:29:41;;;;;;;20;13.1;;;;;;;3.6;76.8;98070;;;;
2022/12/08 23:39:41;;;;;;;20;13.1;;;;;;;3.6;76.8;98060;;;;
2022/12/08 23:50:41;;;;;;;20.9;12.1;;;;;;;3.7;77;98060;;;;
